Time;durP1;ratioP1;P1;durP2;ratioP2;P2;SDS_P1;SDS_P2;PMS_P1;PMS_P2;Temp;Humidity;BMP_temperature;BMP_pressure;BME280_temperature;BME280_humidity;BME280_pressure;Samples;Min_cycle;Max_cycle;Signal;HPM_P1;HPM_P2
2021/04/26 00:00:55;;;;;;;7.32;5.20;;;;;;;;;;5047999;28;20509;-87
2021/04/26 00:03:21;;;;;;;7.32;4.97;;;;;;;;;;5046796;28;20017;-87
2021/04/26 00:05:47;;;;;;;7.05;4.80;;;;;;;;;;5013157;28;20061;-87
2021/04/26 00:08:13;;;;;;;7.03;4.70;;;;;;;;;;5024556;28;20029;-87
2021/04/26 00:10:39;;;;;;;5.78;4.78;;;;;;;;;;5018822;28;20057;-87
2021/04/26 00:13:05;;;;;;;7.07;4.93;;;;;;;;;;5015276;28;20022;-87
2021/04/26 00:15:31;;;;;;;6.20;4.57;;;;;;;;;;5028688;28;20103;-87
2021/04/26 00:17:58;;;;;;;10.00;5.13;;;;;;;;;;5017539;28;20022;-87
2021/04/26 00:20:27;;;;;;;7.55;5.00;;;;;;;;;;5017739;28;20053;-88
2021/04/26 00:22:54;;;;;;;7.15;5.10;;;;;;;;;;5022926;28;20030;-87
2021/04/26 00:25:20;;;;;;;6.57;4.75;;;;;;;;;;5030101;28;20112;-87
2021/04/26 00:27:46;;;;;;;7.85;5.05;;;;;;;;;;5039805;28;20593;-87
2021/04/26 00:30:13;;;;;;;7.65;4.72;;;;;;;;;;5040812;28;20029;-87
2021/04/26 00:32:40;;;;;;;6.35;5.15;;;;;;;;;;5028174;28;20083;-87
2021/04/26 00:35:07;;;;;;;8.20;5.00;;;;;;;;;;5022681;28;20545;-87
2021/04/26 00:37:33;;;;;;;6.63;4.72;;;;;;;;;;5028531;28;20053;-87
2021/04/26 00:39:59;;;;;;;6.43;4.30;;;;;;;;;;5039716;28;20526;-87
2021/04/26 00:42:25;;;;;;;6.53;4.38;;;;;;;;;;5022630;28;20029;-86
2021/04/26 00:44:51;;;;;;;5.53;4.43;;;;;;;;;;5026940;28;20040;-87
2021/04/26 00:47:17;;;;;;;6.93;4.72;;;;;;;;;;5024944;28;20513;-88
2021/04/26 00:49:43;;;;;;;7.15;4.78;;;;;;;;;;5020367;28;20030;-87
2021/04/26 00:52:10;;;;;;;7.25;4.70;;;;;;;;;;5023543;28;20033;-87
2021/04/26 00:54:36;;;;;;;7.45;4.63;;;;;;;;;;5030030;28;20045;-87
2021/04/26 00:57:02;;;;;;;8.23;4.47;;;;;;;;;;5022434;28;20080;-87
2021/04/26 00:59:28;;;;;;;5.78;4.47;;;;;;;;;;5027045;28;20033;-87
2021/04/26 01:01:54;;;;;;;5.07;4.13;;;;;;;;;;5025651;28;20030;-87
2021/04/26 01:04:20;;;;;;;6.63;4.50;;;;;;;;;;5027145;28;20022;-87
2021/04/26 01:06:46;;;;;;;6.68;4.47;;;;;;;;;;5032471;28;20225;-87
2021/04/26 01:09:12;;;;;;;7.25;4.82;;;;;;;;;;5022258;28;20080;-87
2021/04/26 01:12:02;;;;;;;6.85;4.35;;;;;;;;;;5015834;28;20026;-89
2021/04/26 01:14:47;;;;;;;6.80;4.03;;;;;;;;;;5025102;28;20069;-87
2021/04/26 01:17:19;;;;;;;6.35;3.85;;;;;;;;;;5020612;28;20040;-87
2021/04/26 01:19:44;;;;;;;6.78;3.90;;;;;;;;;;5031441;28;20073;-88
2021/04/26 01:22:10;;;;;;;6.72;4.55;;;;;;;;;;5021083;28;20038;-87
2021/04/26 01:24:55;;;;;;;6.68;4.60;;;;;;;;;;5016763;28;20039;-87
2021/04/26 01:27:27;;;;;;;6.53;5.22;;;;;;;;;;5031178;28;20597;-87
2021/04/26 01:30:10;;;;;;;7.70;4.30;;;;;;;;;;5045227;28;20029;-87
2021/04/26 01:32:44;;;;;;;7.10;4.80;;;;;;;;;;5022503;28;20474;-86
2021/04/26 01:35:12;;;;;;;6.75;4.82;;;;;;;;;;5023592;28;20072;-86
2021/04/26 01:37:39;;;;;;;7.40;4.95;;;;;;;;;;5028770;28;20029;-87
2021/04/26 01:40:07;;;;;;;7.43;5.18;;;;;;;;;;5031736;28;20034;-87
2021/04/26 01:42:33;;;;;;;8.10;5.20;;;;;;;;;;5040881;28;20053;-86
2021/04/26 01:45:01;;;;;;;8.73;5.15;;;;;;;;;;5031473;28;20030;-87
2021/04/26 01:47:27;;;;;;;6.57;5.00;;;;;;;;;;5037461;28;20029;-87
2021/04/26 01:49:55;;;;;;;5.57;4.68;;;;;;;;;;5031390;28;20041;-87
2021/04/26 01:52:21;;;;;;;5.82;4.40;;;;;;;;;;5031151;28;20037;-87
2021/04/26 01:54:48;;;;;;;7.03;5.45;;;;;;;;;;5025837;28;20037;-87
2021/04/26 01:57:14;;;;;;;6.55;5.25;;;;;;;;;;5023373;28;20018;-88
2021/04/26 01:59:40;;;;;;;8.52;5.70;;;;;;;;;;5042596;28;20510;-87
2021/04/26 02:02:07;;;;;;;9.00;5.53;;;;;;;;;;5029925;28;20109;-87
2021/04/26 02:04:33;;;;;;;9.13;5.75;;;;;;;;;;5025808;28;20547;-88
2021/04/26 02:07:00;;;;;;;6.70;4.93;;;;;;;;;;5029422;28;20104;-87
2021/04/26 02:09:27;;;;;;;7.47;4.70;;;;;;;;;;5039494;28;20034;-86
2021/04/26 02:11:53;;;;;;;7.15;5.20;;;;;;;;;;5044423;28;20048;-87
2021/04/26 02:14:19;;;;;;;6.88;5.50;;;;;;;;;;5039570;28;20048;-87
2021/04/26 02:16:45;;;;;;;6.47;5.45;;;;;;;;;;5041356;28;20029;-87
2021/04/26 02:19:12;;;;;;;7.60;5.63;;;;;;;;;;5025799;28;20406;-87
2021/04/26 02:21:40;;;;;;;6.68;4.80;;;;;;;;;;5029868;28;20021;-87
2021/04/26 02:24:07;;;;;;;6.82;5.30;;;;;;;;;;5042726;28;20025;-87
2021/04/26 02:26:33;;;;;;;7.15;4.72;;;;;;;;;;5035996;28;20030;-89
2021/04/26 02:28:59;;;;;;;6.88;4.38;;;;;;;;;;5038862;28;20037;-87
2021/04/26 02:31:27;;;;;;;6.10;4.93;;;;;;;;;;5042334;28;20021;-88
2021/04/26 02:33:54;;;;;;;7.10;5.10;;;;;;;;;;5028218;28;20041;-89
2021/04/26 02:36:32;;;;;;;8.13;5.13;;;;;;;;;;5041797;28;20076;-87
2021/04/26 02:38:58;;;;;;;;;;;;;;;;;;5027158;28;20025;-88
2021/04/26 02:41:27;;;;;;;7.32;5.05;;;;;;;;;;5020903;28;19919;-87
2021/04/26 02:43:56;;;;;;;5.90;4.82;;;;;;;;;;5029525;28;20021;-89
2021/04/26 02:46:23;;;;;;;5.97;4.38;;;;;;;;;;5032669;28;20510;-87
2021/04/26 02:48:49;;;;;;;9.55;5.88;;;;;;;;;;5037744;28;20093;-87
2021/04/26 02:51:16;;;;;;;7.30;5.55;;;;;;;;;;5038613;28;20164;-87
2021/04/26 02:53:42;;;;;;;7.32;5.38;;;;;;;;;;5035097;28;20069;-87
2021/04/26 02:56:13;;;;;;;7.95;5.63;;;;;;;;;;5024709;28;20025;-88
2021/04/26 02:58:40;;;;;;;7.28;5.25;;;;;;;;;;5029702;28;20032;-88
2021/04/26 03:01:07;;;;;;;8.18;5.43;;;;;;;;;;5042004;28;20101;-87
2021/04/26 03:03:34;;;;;;;7.38;5.13;;;;;;;;;;5042118;28;20026;-87
2021/04/26 03:06:01;;;;;;;9.93;5.70;;;;;;;;;;5041360;28;20025;-87
2021/04/26 03:08:28;;;;;;;7.88;5.78;;;;;;;;;;5039854;28;20041;-86
2021/04/26 03:10:54;;;;;;;7.85;5.88;;;;;;;;;;5039598;28;20045;-86
2021/04/26 03:13:20;;;;;;;7.82;6.20;;;;;;;;;;5041682;28;20048;-87
2021/04/26 03:15:46;;;;;;;8.32;5.65;;;;;;;;;;5049105;28;20021;-88
2021/04/26 03:18:13;;;;;;;6.95;5.50;;;;;;;;;;5033897;28;20034;-87
2021/04/26 03:20:39;;;;;;;6.80;5.50;;;;;;;;;;5035410;28;20030;-88
2021/04/26 03:23:05;;;;;;;8.63;6.00;;;;;;;;;;5036467;28;20022;-87
2021/04/26 03:25:31;;;;;;;6.60;4.90;;;;;;;;;;5036625;28;20026;-87
2021/04/26 03:27:58;;;;;;;6.93;5.50;;;;;;;;;;5045200;28;20029;-86
2021/04/26 03:30:25;;;;;;;6.65;5.22;;;;;;;;;;5033351;28;20025;-87
2021/04/26 03:32:51;;;;;;;6.82;5.00;;;;;;;;;;5026023;28;20025;-88
2021/04/26 03:35:18;;;;;;;6.25;4.97;;;;;;;;;;5035054;28;20033;-88
2021/04/26 03:37:47;;;;;;;5.95;4.97;;;;;;;;;;5025886;28;20049;-88
2021/04/26 03:40:16;;;;;;;6.13;4.88;;;;;;;;;;5012630;28;20406;-89
2021/04/26 03:42:42;;;;;;;6.05;4.85;;;;;;;;;;5030978;28;20033;-88
2021/04/26 03:45:09;;;;;;;7.40;5.07;;;;;;;;;;5029482;28;20033;-88
2021/04/26 03:47:35;;;;;;;6.80;5.07;;;;;;;;;;5015949;28;20053;-88
2021/04/26 03:50:01;;;;;;;5.63;4.60;;;;;;;;;;5015370;28;20030;-88
2021/04/26 03:52:27;;;;;;;8.45;5.40;;;;;;;;;;5024040;28;20021;-87
2021/04/26 03:54:53;;;;;;;6.97;4.63;;;;;;;;;;5028623;28;20113;-88
2021/04/26 03:57:19;;;;;;;6.57;5.13;;;;;;;;;;5030257;28;20071;-87
2021/04/26 03:59:45;;;;;;;6.82;4.63;;;;;;;;;;5046671;28;20046;-88
2021/04/26 04:02:12;;;;;;;7.40;4.95;;;;;;;;;;5034580;28;20030;-87
2021/04/26 04:04:38;;;;;;;8.95;5.07;;;;;;;;;;5032849;28;20026;-87
2021/04/26 04:07:04;;;;;;;8.07;5.10;;;;;;;;;;5048326;28;20409;-87
2021/04/26 04:09:30;;;;;;;8.30;5.47;;;;;;;;;;5038558;28;20026;-87
2021/04/26 04:11:56;;;;;;;7.65;5.60;;;;;;;;;;5027850;28;20025;-87
2021/04/26 04:14:22;;;;;;;7.63;5.70;;;;;;;;;;5021252;28;20037;-87
2021/04/26 04:16:48;;;;;;;6.75;5.65;;;;;;;;;;5026164;28;20030;-88
2021/04/26 04:19:14;;;;;;;8.45;6.20;;;;;;;;;;5023478;28;20038;-88
2021/04/26 04:21:40;;;;;;;7.00;5.65;;;;;;;;;;5023291;28;20100;-88
2021/04/26 04:24:06;;;;;;;8.10;6.32;;;;;;;;;;5019612;28;20041;-88
2021/04/26 04:26:32;;;;;;;7.03;5.90;;;;;;;;;;5040333;28;20036;-87
2021/04/26 04:28:59;;;;;;;7.85;5.78;;;;;;;;;;5041589;28;20046;-87
2021/04/26 04:31:26;;;;;;;6.50;4.78;;;;;;;;;;5035444;28;20045;-88
2021/04/26 04:33:52;;;;;;;6.82;5.30;;;;;;;;;;5027406;28;20042;-87
2021/04/26 04:36:18;;;;;;;7.32;5.97;;;;;;;;;;5047693;28;20501;-88
2021/04/26 04:38:44;;;;;;;9.32;5.70;;;;;;;;;;5045791;28;20048;-88
2021/04/26 04:41:10;;;;;;;7.35;5.45;;;;;;;;;;5030201;28;20025;-87
2021/04/26 04:43:38;;;;;;;7.30;6.07;;;;;;;;;;5021319;28;20104;-87
2021/04/26 04:46:04;;;;;;;8.18;6.32;;;;;;;;;;5037616;28;20390;-87
2021/04/26 04:48:30;;;;;;;10.38;6.82;;;;;;;;;;5017312;28;20164;-86
2021/04/26 04:50:56;;;;;;;9.77;6.32;;;;;;;;;;5018069;28;20041;-90
2021/04/26 04:53:22;;;;;;;8.55;6.45;;;;;;;;;;5021588;28;20029;-90
2021/04/26 04:55:48;;;;;;;8.15;6.68;;;;;;;;;;5022829;28;20580;-88
2021/04/26 04:58:14;;;;;;;8.98;6.38;;;;;;;;;;5029722;28;20053;-89
2021/04/26 05:00:40;;;;;;;9.05;6.95;;;;;;;;;;5020699;28;20029;-88
2021/04/26 05:03:07;;;;;;;7.00;6.03;;;;;;;;;;5034012;28;20026;-89
2021/04/26 05:05:33;;;;;;;9.18;6.47;;;;;;;;;;5027722;28;20413;-88
2021/04/26 05:07:59;;;;;;;7.72;5.78;;;;;;;;;;5025749;28;20037;-87
2021/04/26 05:10:25;;;;;;;8.63;6.63;;;;;;;;;;5024720;28;20025;-89
2021/04/26 05:12:51;;;;;;;8.82;7.50;;;;;;;;;;5037624;28;20037;-88
2021/04/26 05:15:16;;;;;;;8.93;7.50;;;;;;;;;;5051648;28;20052;-88
2021/04/26 05:17:43;;;;;;;10.15;8.70;;;;;;;;;;5050602;28;20029;-89
2021/04/26 05:20:09;;;;;;;11.82;8.25;;;;;;;;;;5043992;28;20081;-88
2021/04/26 05:22:35;;;;;;;10.55;8.32;;;;;;;;;;5051069;28;20026;-86
2021/04/26 05:25:03;;;;;;;13.45;7.80;;;;;;;;;;5052986;28;20068;-88
2021/04/26 05:27:29;;;;;;;11.50;8.63;;;;;;;;;;5038100;28;20018;-88
2021/04/26 05:29:55;;;;;;;9.60;7.70;;;;;;;;;;5021477;28;20044;-89
2021/04/26 05:32:21;;;;;;;10.95;8.25;;;;;;;;;;5024001;28;20057;-89
2021/04/26 05:34:47;;;;;;;10.65;7.95;;;;;;;;;;5027070;28;20052;-89
2021/04/26 05:37:13;;;;;;;9.60;8.60;;;;;;;;;;5030816;28;20052;-89
2021/04/26 05:39:39;;;;;;;8.35;7.10;;;;;;;;;;5031283;28;20033;-89
2021/04/26 05:42:05;;;;;;;9.20;6.95;;;;;;;;;;5033347;28;20022;-89
2021/04/26 05:44:31;;;;;;;9.90;7.60;;;;;;;;;;5038912;28;20434;-89
2021/04/26 05:46:57;;;;;;;12.13;8.52;;;;;;;;;;5028001;28;20036;-88
2021/04/26 05:49:23;;;;;;;9.77;7.93;;;;;;;;;;5021180;28;20037;-88
2021/04/26 05:51:49;;;;;;;9.07;6.90;;;;;;;;;;5030848;28;20073;-88
2021/04/26 05:54:15;;;;;;;7.07;5.25;;;;;;;;;;5031519;28;20041;-88
2021/04/26 05:56:41;;;;;;;8.52;7.00;;;;;;;;;;5028108;28;20018;-87
2021/04/26 05:59:07;;;;;;;6.57;4.93;;;;;;;;;;5029599;28;20376;-88
2021/04/26 06:01:33;;;;;;;7.35;5.40;;;;;;;;;;5025814;28;20048;-88
2021/04/26 06:03:59;;;;;;;7.88;5.22;;;;;;;;;;5032345;28;20029;-87
2021/04/26 06:06:27;;;;;;;8.40;6.13;;;;;;;;;;5037690;28;20031;-87
2021/04/26 06:08:53;;;;;;;10.27;6.68;;;;;;;;;;5021516;28;20545;-86
2021/04/26 06:11:19;;;;;;;6.95;4.35;;;;;;;;;;5030337;28;20057;-86
2021/04/26 06:13:45;;;;;;;8.52;5.53;;;;;;;;;;5031972;28;20093;-86
2021/04/26 06:16:10;;;;;;;7.85;5.63;;;;;;;;;;5021081;28;20034;-86
2021/04/26 06:18:36;;;;;;;8.35;5.75;;;;;;;;;;5027379;28;20049;-86
2021/04/26 06:21:03;;;;;;;9.38;6.85;;;;;;;;;;5014852;28;20172;-87
2021/04/26 06:23:29;;;;;;;9.75;6.13;;;;;;;;;;5024330;28;20018;-86
2021/04/26 06:25:55;;;;;;;10.73;7.32;;;;;;;;;;5027508;28;20048;-86
2021/04/26 06:28:21;;;;;;;9.73;6.70;;;;;;;;;;5029068;28;20475;-86
2021/04/26 06:30:47;;;;;;;11.63;6.95;;;;;;;;;;5018001;28;20601;-86
2021/04/26 06:33:16;;;;;;;12.20;7.88;;;;;;;;;;5034205;28;20101;-86
2021/04/26 06:35:43;;;;;;;11.60;8.95;;;;;;;;;;5028509;28;20045;-86
2021/04/26 06:38:09;;;;;;;11.25;8.82;;;;;;;;;;5026766;28;20445;-86
2021/04/26 06:40:35;;;;;;;13.15;7.78;;;;;;;;;;5026884;28;20030;-86
2021/04/26 06:43:01;;;;;;;12.63;8.95;;;;;;;;;;5020196;28;20385;-86
2021/04/26 06:45:27;;;;;;;12.52;8.85;;;;;;;;;;5027659;28;20024;-86
2021/04/26 06:47:53;;;;;;;14.15;9.13;;;;;;;;;;5024268;28;20044;-86
2021/04/26 06:50:20;;;;;;;11.80;9.55;;;;;;;;;;5019314;28;20488;-86
2021/04/26 06:52:46;;;;;;;11.98;9.57;;;;;;;;;;5020360;28;20520;-86
2021/04/26 06:55:12;;;;;;;11.23;9.95;;;;;;;;;;5030781;28;20037;-86
2021/04/26 06:57:38;;;;;;;11.73;10.20;;;;;;;;;;5015864;28;20032;-86
2021/04/26 07:00:06;;;;;;;12.98;11.00;;;;;;;;;;5013883;28;20057;-86
2021/04/26 07:02:32;;;;;;;16.40;10.68;;;;;;;;;;5021208;28;20033;-86
2021/04/26 07:04:58;;;;;;;14.88;11.52;;;;;;;;;;5019175;28;20033;-86
2021/04/26 07:07:24;;;;;;;12.35;11.05;;;;;;;;;;5017492;28;20010;-86
2021/04/26 07:09:51;;;;;;;12.45;10.80;;;;;;;;;;5023897;28;20030;-86
2021/04/26 07:12:17;;;;;;;13.43;10.43;;;;;;;;;;5020647;28;20108;-86
2021/04/26 07:14:43;;;;;;;11.23;9.95;;;;;;;;;;5026183;28;20045;-86
2021/04/26 07:17:09;;;;;;;11.93;10.27;;;;;;;;;;5021169;28;20132;-87
2021/04/26 07:19:35;;;;;;;14.25;10.65;;;;;;;;;;5026430;28;20091;-86
2021/04/26 07:22:01;;;;;;;11.75;10.55;;;;;;;;;;5015890;28;20026;-86
2021/04/26 07:24:27;;;;;;;15.45;10.63;;;;;;;;;;5014443;28;20490;-86
2021/04/26 07:26:53;;;;;;;10.73;9.55;;;;;;;;;;5014863;28;20117;-86
2021/04/26 07:29:19;;;;;;;11.98;9.50;;;;;;;;;;5019751;28;20059;-86
2021/04/26 07:31:45;;;;;;;12.35;10.13;;;;;;;;;;5022620;28;20501;-86
2021/04/26 07:34:11;;;;;;;10.80;9.30;;;;;;;;;;5025534;28;20064;-86
2021/04/26 07:36:37;;;;;;;14.95;10.60;;;;;;;;;;5034893;28;20021;-86
2021/04/26 07:39:04;;;;;;;11.80;10.10;;;;;;;;;;5028078;28;20113;-86
2021/04/26 07:41:30;;;;;;;12.70;9.68;;;;;;;;;;5033840;28;20037;-86
2021/04/26 07:43:57;;;;;;;10.18;8.93;;;;;;;;;;5032705;28;20033;-86
2021/04/26 07:46:23;;;;;;;10.88;9.43;;;;;;;;;;5031056;28;20042;-86
2021/04/26 07:48:49;;;;;;;12.27;9.32;;;;;;;;;;5037063;28;20505;-86
2021/04/26 07:51:15;;;;;;;11.57;9.63;;;;;;;;;;5033077;28;20367;-86
2021/04/26 07:53:41;;;;;;;12.35;9.80;;;;;;;;;;5035592;28;20079;-86
2021/04/26 07:56:07;;;;;;;11.90;9.73;;;;;;;;;;5034640;28;20056;-87
2021/04/26 07:58:33;;;;;;;11.68;8.40;;;;;;;;;;5029829;28;20029;-86
2021/04/26 08:00:58;;;;;;;10.48;9.25;;;;;;;;;;5014521;28;20034;-88
2021/04/26 08:03:25;;;;;;;11.85;9.00;;;;;;;;;;5015504;28;20022;-86
2021/04/26 08:05:51;;;;;;;10.60;8.85;;;;;;;;;;5017777;28;20026;-86
2021/04/26 08:08:17;;;;;;;12.93;9.40;;;;;;;;;;5023965;28;20025;-86
2021/04/26 08:10:43;;;;;;;11.57;9.43;;;;;;;;;;5018259;28;20128;-86
2021/04/26 08:13:09;;;;;;;11.15;9.10;;;;;;;;;;5020960;28;20082;-87
2021/04/26 08:15:35;;;;;;;12.50;9.80;;;;;;;;;;5031698;28;20153;-87
2021/04/26 08:18:01;;;;;;;12.55;9.90;;;;;;;;;;5019360;28;20036;-87
2021/04/26 08:20:27;;;;;;;11.20;9.10;;;;;;;;;;5028229;28;20502;-86
2021/04/26 08:22:53;;;;;;;12.27;9.32;;;;;;;;;;5030576;28;20021;-86
2021/04/26 08:25:19;;;;;;;12.32;9.13;;;;;;;;;;5024793;28;20013;-86
2021/04/26 08:27:47;;;;;;;12.05;8.77;;;;;;;;;;5023981;28;20128;-86
2021/04/26 08:30:13;;;;;;;9.45;8.40;;;;;;;;;;5042190;28;20025;-86
2021/04/26 08:32:39;;;;;;;10.07;8.32;;;;;;;;;;5026399;28;20026;-86
2021/04/26 08:35:05;;;;;;;11.60;8.55;;;;;;;;;;5029476;28;20053;-86
2021/04/26 08:37:32;;;;;;;9.80;8.45;;;;;;;;;;5027157;28;20133;-86
2021/04/26 08:39:58;;;;;;;9.45;7.95;;;;;;;;;;5042456;28;20033;-86
2021/04/26 08:42:24;;;;;;;11.15;9.05;;;;;;;;;;5022529;28;20025;-86
2021/04/26 08:44:50;;;;;;;10.80;8.23;;;;;;;;;;5020587;28;20036;-88
2021/04/26 08:47:19;;;;;;;12.40;8.18;;;;;;;;;;5024983;28;20113;-87
2021/04/26 08:49:45;;;;;;;10.23;8.48;;;;;;;;;;5035960;28;20030;-87
2021/04/26 08:52:11;;;;;;;11.57;8.90;;;;;;;;;;5040275;28;20466;-87
2021/04/26 08:54:37;;;;;;;10.63;9.50;;;;;;;;;;5026744;28;20073;-87
2021/04/26 08:57:04;;;;;;;11.07;9.55;;;;;;;;;;5040154;28;20041;-87
2021/04/26 08:59:30;;;;;;;11.35;9.35;;;;;;;;;;5030431;28;20045;-87
2021/04/26 09:02:04;;;;;;;12.50;10.05;;;;;;;;;;5023701;28;20068;-86
2021/04/26 09:04:33;;;;;;;12.15;10.65;;;;;;;;;;5031422;28;20020;-87
2021/04/26 09:07:02;;;;;;;14.40;9.55;;;;;;;;;;5039955;28;20492;-87
2021/04/26 09:09:37;;;;;;;11.68;10.18;;;;;;;;;;5024087;28;20501;-87
2021/04/26 09:12:04;;;;;;;15.18;11.20;;;;;;;;;;5024533;28;20038;-87
2021/04/26 09:14:34;;;;;;;11.52;10.30;;;;;;;;;;5027243;28;20033;-88
2021/04/26 09:17:20;;;;;;;11.80;9.32;;;;;;;;;;5028379;28;20034;-88
2021/04/26 09:19:46;;;;;;;13.52;9.15;;;;;;;;;;5023930;28;20052;-87
2021/04/26 09:22:13;;;;;;;10.73;8.60;;;;;;;;;;5027289;28;20026;-87
2021/04/26 09:24:39;;;;;;;11.13;9.23;;;;;;;;;;5026458;28;20026;-88
2021/04/26 09:27:06;;;;;;;12.05;10.10;;;;;;;;;;5039813;28;20061;-88
2021/04/26 09:29:33;;;;;;;10.50;9.40;;;;;;;;;;5026221;28;20030;-88
2021/04/26 09:32:02;;;;;;;9.93;8.52;;;;;;;;;;5027903;28;20057;-88
2021/04/26 09:34:31;;;;;;;10.48;7.95;;;;;;;;;;5039442;28;20375;-88
2021/04/26 09:37:11;;;;;;;9.00;8.05;;;;;;;;;;5025881;28;20032;-88
2021/04/26 09:39:56;;;;;;;9.02;7.55;;;;;;;;;;5033465;28;20061;-88
2021/04/26 09:42:56;;;;;;;9.35;8.00;;;;;;;;;;5039749;28;20029;-88
2021/04/26 09:45:30;;;;;;;8.93;7.82;;;;;;;;;;5001527;28;20044;-87
2021/04/26 09:48:15;;;;;;;10.85;8.13;;;;;;;;;;5022497;28;20113;-88
2021/04/26 09:50:53;;;;;;;8.60;7.65;;;;;;;;;;5028601;28;20505;-86
2021/04/26 09:53:20;;;;;;;9.35;8.00;;;;;;;;;;5027288;28;20036;-88
2021/04/26 09:55:46;;;;;;;10.82;7.88;;;;;;;;;;5030349;28;20040;-88
2021/04/26 09:58:12;;;;;;;10.10;7.50;;;;;;;;;;5048381;28;20029;-88
2021/04/26 10:00:38;;;;;;;9.27;6.40;;;;;;;;;;5042796;28;20022;-88
2021/04/26 10:03:05;;;;;;;9.38;6.93;;;;;;;;;;5032583;28;20168;-88
2021/04/26 10:05:31;;;;;;;7.70;6.57;;;;;;;;;;5032542;28;20089;-87
2021/04/26 10:07:57;;;;;;;9.18;6.43;;;;;;;;;;5034376;28;20036;-88
2021/04/26 10:10:23;;;;;;;9.07;6.05;;;;;;;;;;5029817;28;20033;-88
2021/04/26 10:12:49;;;;;;;8.68;7.57;;;;;;;;;;5044253;28;20122;-88
2021/04/26 10:15:15;;;;;;;10.85;7.15;;;;;;;;;;5030448;28;20041;-87
2021/04/26 10:17:43;;;;;;;7.75;6.05;;;;;;;;;;5028116;28;20042;-87
2021/04/26 10:20:09;;;;;;;7.05;6.10;;;;;;;;;;5053143;28;20152;-87
2021/04/26 10:22:37;;;;;;;6.50;5.63;;;;;;;;;;5042669;28;20022;-87
2021/04/26 10:25:04;;;;;;;7.30;5.68;;;;;;;;;;5024143;28;20021;-86
2021/04/26 10:27:40;;;;;;;7.25;4.40;;;;;;;;;;5048206;28;20022;-85
2021/04/26 10:30:06;;;;;;;5.85;3.60;;;;;;;;;;5043584;28;20056;-86
2021/04/26 10:32:52;;;;;;;6.50;4.20;;;;;;;;;;5046962;28;20021;-85
2021/04/26 10:35:18;;;;;;;7.15;3.88;;;;;;;;;;5014912;28;20069;-87
2021/04/26 10:37:44;;;;;;;6.50;4.10;;;;;;;;;;5043627;28;20105;-86
2021/04/26 10:40:13;;;;;;;5.95;3.80;;;;;;;;;;5046477;28;20033;-86
2021/04/26 10:42:38;;;;;;;;;;;;;;;;;;5045638;28;20030;-86
2021/04/26 10:45:25;;;;;;;7.60;4.53;;;;;;;;;;5032347;28;20303;-86
2021/04/26 10:48:05;;;;;;;6.05;4.03;;;;;;;;;;5029588;28;20059;-88
2021/04/26 10:50:31;;;;;;;6.40;4.13;;;;;;;;;;5018628;28;20022;-88
2021/04/26 10:52:59;;;;;;;5.43;4.03;;;;;;;;;;5019372;28;20045;-86
2021/04/26 10:55:38;;;;;;;6.10;4.15;;;;;;;;;;5028628;28;20087;-88
2021/04/26 10:58:20;;;;;;;6.03;3.97;;;;;;;;;;5015951;28;20091;-86
2021/04/26 11:00:46;;;;;;;5.97;3.90;;;;;;;;;;5015294;28;20021;-86
2021/04/26 11:03:12;;;;;;;5.95;4.07;;;;;;;;;;5029838;28;20021;-88
2021/04/26 11:05:46;;;;;;;7.32;3.90;;;;;;;;;;5018999;28;20026;-87
2021/04/26 11:08:53;;;;;;;5.70;4.03;;;;;;;;;;5022303;28;20047;-87
2021/04/26 11:11:30;;;;;;;5.57;3.85;;;;;;;;;;4965615;28;20057;-88
2021/04/26 11:14:04;;;;;;;6.97;3.50;;;;;;;;;;5015752;28;20080;-87
2021/04/26 11:16:32;;;;;;;5.60;4.00;;;;;;;;;;5021997;28;20034;-88
2021/04/26 11:18:58;;;;;;;6.03;4.05;;;;;;;;;;5031941;28;20046;-87
2021/04/26 11:21:47;;;;;;;6.25;4.40;;;;;;;;;;5021542;28;20026;-87
2021/04/26 11:24:33;;;;;;;5.60;4.53;;;;;;;;;;5037344;28;20037;-86
2021/04/26 11:27:08;;;;;;;6.03;4.68;;;;;;;;;;5047006;28;20021;-87
2021/04/26 11:29:44;;;;;;;6.25;3.90;;;;;;;;;;5026476;28;20029;-89
2021/04/26 11:32:11;;;;;;;5.88;4.13;;;;;;;;;;5030988;28;20364;-87
2021/04/26 11:34:53;;;;;;;6.65;4.65;;;;;;;;;;5034715;28;20029;-87
2021/04/26 11:37:21;;;;;;;8.68;5.20;;;;;;;;;;5032549;28;20022;-87
2021/04/26 11:39:48;;;;;;;5.47;4.55;;;;;;;;;;5037851;28;20473;-88
2021/04/26 11:42:24;;;;;;;8.73;4.83;;;;;;;;;;5031018;28;20056;-87
2021/04/26 11:44:51;;;;;;;8.05;5.00;;;;;;;;;;5034303;28;20033;-87
2021/04/26 11:47:18;;;;;;;6.93;5.03;;;;;;;;;;5030446;28;20032;-86
2021/04/26 11:49:44;;;;;;;6.22;5.30;;;;;;;;;;5031668;28;20453;-86
2021/04/26 11:52:31;;;;;;;7.68;5.28;;;;;;;;;;5037358;28;20104;-86
2021/04/26 11:55:00;;;;;;;6.30;4.93;;;;;;;;;;5021357;28;20053;-87
2021/04/26 11:57:26;;;;;;;7.13;5.15;;;;;;;;;;5018497;28;20026;-86
2021/04/26 11:59:53;;;;;;;7.63;4.95;;;;;;;;;;5026858;28;20076;-87
2021/04/26 12:02:35;;;;;;;6.82;4.97;;;;;;;;;;5031700;28;20022;-87
2021/04/26 12:05:03;;;;;;;7.35;5.05;;;;;;;;;;5031909;28;20067;-87
2021/04/26 12:07:31;;;;;;;5.95;5.10;;;;;;;;;;5026990;28;20057;-86
2021/04/26 12:09:58;;;;;;;6.57;5.25;;;;;;;;;;5024550;28;20028;-87
2021/04/26 12:12:25;;;;;;;10.47;5.77;;;;;;;;;;5027738;28;20033;-86
2021/04/26 12:14:55;;;;;;;7.40;5.18;;;;;;;;;;5026362;28;20041;-86
2021/04/26 12:17:25;;;;;;;8.55;5.57;;;;;;;;;;5027867;28;20030;-86
2021/04/26 12:19:52;;;;;;;7.45;5.60;;;;;;;;;;5019603;28;20490;-86
2021/04/26 12:22:20;;;;;;;7.45;5.25;;;;;;;;;;5018403;28;20029;-87
2021/04/26 12:24:47;;;;;;;7.43;5.05;;;;;;;;;;5026277;28;20367;-87
2021/04/26 12:27:14;;;;;;;5.72;4.65;;;;;;;;;;5029596;28;20082;-87
2021/04/26 12:29:40;;;;;;;10.50;4.93;;;;;;;;;;5024704;28;20060;-87
2021/04/26 12:32:12;;;;;;;7.47;5.68;;;;;;;;;;5025007;28;20052;-86
2021/04/26 12:34:57;;;;;;;7.00;5.25;;;;;;;;;;5017097;28;20038;-87
2021/04/26 12:37:25;;;;;;;8.63;5.93;;;;;;;;;;5020914;28;20030;-87
2021/04/26 12:39:51;;;;;;;7.03;5.35;;;;;;;;;;5020984;28;20481;-87
2021/04/26 12:42:19;;;;;;;7.85;5.18;;;;;;;;;;5024748;28;20482;-86
2021/04/26 12:44:45;;;;;;;8.25;5.95;;;;;;;;;;5021944;28;20020;-87
2021/04/26 12:47:24;;;;;;;9.18;5.80;;;;;;;;;;5020137;28;20025;-87
2021/04/26 12:50:10;;;;;;;7.22;4.78;;;;;;;;;;5022035;28;20429;-87
2021/04/26 12:52:36;;;;;;;8.77;4.82;;;;;;;;;;5026919;28;20018;-86
2021/04/26 12:55:12;;;;;;;7.93;5.20;;;;;;;;;;5019235;28;20537;-87
2021/04/26 12:57:39;;;;;;;7.80;5.18;;;;;;;;;;5018509;28;20490;-87
2021/04/26 13:00:09;;;;;;;8.65;5.10;;;;;;;;;;5039497;28;20120;-87
2021/04/26 13:02:35;;;;;;;9.57;4.90;;;;;;;;;;5020146;28;20022;-87
2021/04/26 13:05:01;;;;;;;8.98;5.07;;;;;;;;;;5022468;28;20026;-87
2021/04/26 13:07:28;;;;;;;6.60;4.93;;;;;;;;;;5018932;28;20205;-87
2021/04/26 13:10:20;;;;;;;6.07;4.75;;;;;;;;;;5021796;28;20036;-87
2021/04/26 13:13:00;;;;;;;7.10;5.00;;;;;;;;;;5013645;28;20046;-87
2021/04/26 13:15:29;;;;;;;11.00;5.00;;;;;;;;;;5018486;28;20053;-87
2021/04/26 13:18:11;;;;;;;7.30;5.50;;;;;;;;;;5035129;28;20060;-87
2021/04/26 13:20:37;;;;;;;8.38;5.13;;;;;;;;;;5026229;28;20137;-87
2021/04/26 13:23:16;;;;;;;7.30;4.82;;;;;;;;;;5031535;28;20057;-87
2021/04/26 13:25:43;;;;;;;7.53;4.40;;;;;;;;;;5042412;28;20026;-86
2021/04/26 13:28:09;;;;;;;6.57;4.40;;;;;;;;;;5039168;28;20053;-87
2021/04/26 13:30:35;;;;;;;6.97;4.43;;;;;;;;;;5042191;28;20033;-87
2021/04/26 13:33:01;;;;;;;6.72;4.03;;;;;;;;;;5054488;28;20010;-86
2021/04/26 13:35:28;;;;;;;8.00;4.38;;;;;;;;;;5045194;28;20061;-86
2021/04/26 13:37:54;;;;;;;6.47;4.40;;;;;;;;;;5038403;28;20109;-87
2021/04/26 13:40:20;;;;;;;7.65;4.68;;;;;;;;;;5019110;28;20494;-87
2021/04/26 13:42:46;;;;;;;9.48;5.93;;;;;;;;;;5039972;28;20010;-86
2021/04/26 13:45:12;;;;;;;7.82;4.70;;;;;;;;;;5026584;28;20034;-86
2021/04/26 13:47:38;;;;;;;8.75;4.80;;;;;;;;;;5023551;28;20113;-87
2021/04/26 13:50:04;;;;;;;6.47;4.40;;;;;;;;;;5033089;28;20061;-87
2021/04/26 13:52:30;;;;;;;8.80;5.53;;;;;;;;;;5032985;28;20037;-87
2021/04/26 13:54:56;;;;;;;15.95;7.90;;;;;;;;;;5033810;28;20033;-86
2021/04/26 13:57:22;;;;;;;12.77;7.47;;;;;;;;;;5031173;28;20037;-87
2021/04/26 13:59:48;;;;;;;12.13;7.68;;;;;;;;;;5037010;28;20030;-87
2021/04/26 14:02:14;;;;;;;12.52;8.77;;;;;;;;;;5037891;28;20053;-87
2021/04/26 14:04:40;;;;;;;10.48;7.57;;;;;;;;;;5032487;28;20026;-87
2021/04/26 14:07:06;;;;;;;10.05;7.60;;;;;;;;;;5026677;28;20022;-86
2021/04/26 14:09:34;;;;;;;10.65;7.88;;;;;;;;;;5033247;28;20616;-86
2021/04/26 14:12:01;;;;;;;11.30;7.22;;;;;;;;;;5027375;28;20014;-87
2021/04/26 14:14:27;;;;;;;9.75;6.63;;;;;;;;;;5032714;28;20037;-87
2021/04/26 14:16:53;;;;;;;8.52;6.38;;;;;;;;;;5039333;28;20083;-87
2021/04/26 14:19:19;;;;;;;9.35;6.05;;;;;;;;;;5041242;28;20384;-86
2021/04/26 14:21:45;;;;;;;10.43;7.70;;;;;;;;;;5023505;28;22869;-87
2021/04/26 14:24:11;;;;;;;8.18;6.57;;;;;;;;;;5041022;28;20025;-87
2021/04/26 14:26:37;;;;;;;14.65;7.85;;;;;;;;;;5025554;28;20036;-87
2021/04/26 14:29:03;;;;;;;11.35;8.63;;;;;;;;;;5021288;28;20026;-86
2021/04/26 14:31:29;;;;;;;12.23;8.10;;;;;;;;;;5030873;28;20030;-88
2021/04/26 14:33:55;;;;;;;11.40;7.72;;;;;;;;;;5054100;28;20064;-86
2021/04/26 14:36:21;;;;;;;11.05;6.40;;;;;;;;;;5022950;28;20069;-89
2021/04/26 14:38:47;;;;;;;15.18;10.00;;;;;;;;;;5028553;28;20022;-88
2021/04/26 14:41:13;;;;;;;9.30;7.13;;;;;;;;;;5033606;28;20069;-85
2021/04/26 14:43:39;;;;;;;10.15;6.57;;;;;;;;;;5043182;28;20018;-88